Time;durP1;ratioP1;P1;durP2;ratioP2;P2;SDS_P1;SDS_P2;PMS_P1;PMS_P2;Temp;Humidity;BMP_temperature;BMP_pressure;BME280_temperature;BME280_humidity;BME280_pressure;Samples;Min_cycle;Max_cycle;Signal;HPM_P1;HPM_P2
2022/05/04 00:00:05;;;;;;;7.07;3.80;;;20.10;68.70;;;;;;5014275;28;20489;-69
2022/05/04 00:02:41;;;;;;;5.23;3.53;;;20.10;68.70;;;;;;5014662;28;20453;-70
2022/05/04 00:05:08;;;;;;;3.87;3.13;;;20.00;68.60;;;;;;5014413;28;20409;-70
2022/05/04 00:07:39;;;;;;;4.03;3.60;;;20.00;68.60;;;;;;4999955;28;20482;-70
2022/05/04 00:10:09;;;;;;;7.00;3.60;;;20.00;68.70;;;;;;5010835;28;20410;-69
2022/05/04 00:12:37;;;;;;;6.27;3.47;;;20.00;68.70;;;;;;5010432;28;20473;-69
2022/05/04 00:15:06;;;;;;;5.17;3.57;;;20.00;68.70;;;;;;5011327;28;20431;-69
2022/05/04 00:17:32;;;;;;;7.37;3.87;;;20.00;68.80;;;;;;5011984;28;20479;-69
2022/05/04 00:20:02;;;;;;;3.70;3.40;;;19.90;68.70;;;;;;5012126;28;20421;-69
2022/05/04 00:22:28;;;;;;;5.83;4.50;;;19.90;68.70;;;;;;5010676;28;20813;-69
2022/05/04 00:24:57;;;;;;;8.70;3.90;;;19.90;68.80;;;;;;4994422;28;20897;-69
2022/05/04 00:27:27;;;;;;;5.50;3.37;;;19.90;68.80;;;;;;5010941;28;20462;-70
2022/05/04 00:29:56;;;;;;;5.10;3.23;;;19.90;68.80;;;;;;5010948;28;20449;-69
2022/05/04 00:32:24;;;;;;;4.53;2.70;;;19.80;68.60;;;;;;5010734;28;20410;-70
2022/05/04 00:34:50;;;;;;;5.00;3.30;;;19.80;68.70;;;;;;5011892;28;20404;-70
2022/05/04 00:37:16;;;;;;;5.80;4.00;;;19.80;68.70;;;;;;5026292;28;20446;-70
2022/05/04 00:39:44;;;;;;;4.60;3.40;;;19.80;68.70;;;;;;5011845;28;20574;-70
2022/05/04 00:42:19;;;;;;;6.17;3.60;;;19.70;68.70;;;;;;5011678;28;20199;-70
2022/05/04 00:44:47;;;;;;;5.03;3.50;;;19.80;68.80;;;;;;5011645;28;20903;-70
2022/05/04 00:47:17;;;;;;;6.20;3.50;;;19.70;68.70;;;;;;4994335;28;20461;-70
2022/05/04 00:49:46;;;;;;;6.67;3.13;;;19.70;68.70;;;;;;5010503;28;20463;-70
2022/05/04 00:52:13;;;;;;;3.60;3.17;;;19.70;68.80;;;;;;5011381;28;20548;-70
2022/05/04 00:54:42;;;;;;;5.77;3.27;;;19.70;68.80;;;;;;5011760;28;20453;-70
2022/05/04 00:57:09;;;;;;;5.07;3.37;;;19.60;68.70;;;;;;4994263;28;20900;-70
2022/05/04 00:59:37;;;;;;;6.37;4.10;;;19.60;68.70;;;;;;5010477;28;20442;-70
2022/05/04 01:02:06;;;;;;;4.60;3.23;;;19.60;68.70;;;;;;5013398;28;20462;-70
2022/05/04 01:04:32;;;;;;;5.00;3.30;;;19.60;68.80;;;;;;5030663;28;20443;-70
2022/05/04 01:06:59;;;;;;;4.67;3.10;;;19.60;68.80;;;;;;5022328;28;20428;-70
2022/05/04 01:09:28;;;;;;;4.53;3.23;;;19.50;68.70;;;;;;5017738;28;20538;-70
2022/05/04 01:11:58;;;;;;;5.33;3.13;;;19.50;68.70;;;;;;5017516;28;20764;-70
2022/05/04 01:14:29;;;;;;;3.93;3.30;;;19.50;68.70;;;;;;5018105;28;20517;-70
2022/05/04 01:16:58;;;;;;;4.17;3.10;;;19.50;68.70;;;;;;5000670;28;20455;-70
2022/05/04 01:19:24;;;;;;;3.40;3.07;;;19.50;68.80;;;;;;5034977;28;20431;-70
2022/05/04 01:21:53;;;;;;;5.63;3.37;;;19.50;68.80;;;;;;5001161;28;20447;-70
2022/05/04 01:24:21;;;;;;;4.43;2.93;;;19.40;68.60;;;;;;5001122;28;20980;-69
2022/05/04 01:26:47;;;;;;;6.43;3.37;;;19.40;68.70;;;;;;5033729;28;20229;-70
2022/05/04 01:29:14;;;;;;;5.83;3.43;;;19.40;68.70;;;;;;5034478;28;20804;-70
2022/05/04 01:31:40;;;;;;;4.20;3.13;;;19.40;68.70;;;;;;5034716;28;20819;-70
2022/05/04 01:34:11;;;;;;;6.83;3.70;;;19.30;68.70;;;;;;5034787;28;20674;-70
2022/05/04 01:36:40;;;;;;;4.40;3.37;;;19.30;68.80;;;;;;5033479;28;20474;-69
2022/05/04 01:39:08;;;;;;;4.90;3.20;;;19.30;68.80;;;;;;5033964;28;20451;-69
2022/05/04 01:44:32;;;;;;;5.00;3.03;;;19.30;68.80;;;;;;5034566;28;20440;-69
2022/05/04 01:46:59;;;;;;;4.83;3.40;;;19.30;68.80;;;;;;5000811;28;20486;-69
2022/05/04 01:49:27;;;;;;;7.20;3.10;;;19.20;68.70;;;;;;5034160;28;20453;-69
2022/05/04 01:51:54;;;;;;;4.70;2.93;;;19.20;68.70;;;;;;5034273;28;20853;-68
2022/05/04 01:54:22;;;;;;;6.53;3.50;;;19.20;68.80;;;;;;5000429;28;20473;-69
2022/05/04 01:56:50;;;;;;;5.07;3.13;;;19.20;68.80;;;;;;5016506;28;20407;-69
2022/05/04 01:59:16;;;;;;;4.10;3.20;;;19.20;68.80;;;;;;5033365;28;20779;-70
2022/05/04 02:01:46;;;;;;;5.10;3.00;;;19.20;68.90;;;;;;5034300;28;20576;-69
2022/05/04 02:04:13;;;;;;;4.33;3.60;;;19.10;68.80;;;;;;5016704;28;20504;-69
2022/05/04 02:06:42;;;;;;;4.43;3.00;;;19.10;68.80;;;;;;5000350;28;20948;-69
2022/05/04 02:09:10;;;;;;;4.63;3.47;;;19.10;68.80;;;;;;5016233;28;20466;-69
2022/05/04 02:11:37;;;;;;;6.47;3.20;;;19.10;68.80;;;;;;4999683;28;20457;-69
2022/05/04 02:14:04;;;;;;;4.17;2.90;;;19.00;68.80;;;;;;4999922;28;20427;-69
2022/05/04 02:16:33;;;;;;;7.03;3.13;;;19.00;68.80;;;;;;5034035;28;20890;-70
2022/05/04 02:19:01;;;;;;;4.70;3.03;;;19.00;68.80;;;;;;5016510;28;20992;-69
2022/05/04 02:21:27;;;;;;;6.80;3.77;;;19.00;68.80;;;;;;5016253;28;20439;-69
2022/05/04 02:23:53;;;;;;;4.67;3.27;;;19.00;69.60;;;;;;5033869;28;20827;-69
2022/05/04 02:26:22;;;;;;;5.73;3.07;;;19.00;69.60;;;;;;5016189;28;20462;-69
2022/05/04 02:28:52;;;;;;;4.23;3.20;;;19.00;68.80;;;;;;5015891;28;21015;-70
2022/05/04 02:31:18;;;;;;;3.93;3.20;;;18.90;68.80;;;;;;4999884;28;20925;-69
2022/05/04 02:33:44;;;;;;;3.93;3.07;;;18.90;68.80;;;;;;5033597;28;20401;-69
2022/05/04 02:39:09;;;;;;;4.60;3.20;;;18.90;68.90;;;;;;4994262;28;20446;-70
2022/05/04 02:41:39;;;;;;;3.90;3.47;;;18.80;68.80;;;;;;5015698;28;20437;-69
2022/05/04 02:44:10;;;;;;;4.23;3.27;;;18.80;68.80;;;;;;4999542;28;20432;-70
2022/05/04 02:46:36;;;;;;;5.13;3.07;;;18.80;69.70;;;;;;5015570;28;20494;-69
2022/05/04 02:49:02;;;;;;;3.80;2.93;;;18.80;68.90;;;;;;5033215;28;20828;-69
2022/05/04 02:51:30;;;;;;;4.40;3.27;;;18.80;68.90;;;;;;5015851;28;20412;-69
2022/05/04 02:53:59;;;;;;;3.67;2.90;;;18.80;68.90;;;;;;4999568;28;20431;-69
2022/05/04 02:56:27;;;;;;;3.80;2.93;;;18.70;68.90;;;;;;4999368;28;20411;-69
2022/05/04 02:58:53;;;;;;;7.37;3.70;;;18.70;69.00;;;;;;5032978;28;20453;-69
2022/05/04 03:04:09;;;;;;;4.27;3.20;;;18.70;69.00;;;;;;5033062;28;20421;-69
2022/05/04 03:06:41;;;;;;;4.33;2.83;;;18.70;69.00;;;;;;5014594;28;20450;-69
2022/05/04 03:09:10;;;;;;;4.80;3.27;;;18.70;69.00;;;;;;5032453;28;20462;-69
2022/05/04 03:11:56;;;;;;;7.10;3.23;;;18.60;68.90;;;;;;5015262;28;20427;-69
2022/05/04 03:14:27;;;;;;;10.13;3.53;;;18.60;68.90;;;;;;5033021;28;21039;-69
2022/05/04 03:16:54;;;;;;;3.53;3.23;;;18.60;68.90;;;;;;5015179;28;20404;-69
2022/05/04 03:19:24;;;;;;;6.10;3.70;;;18.60;69.00;;;;;;5015152;28;20439;-69
2022/05/04 03:21:59;;;;;;;5.10;3.40;;;18.60;69.10;;;;;;5015082;28;20448;-69
2022/05/04 03:24:25;;;;;;;6.03;3.50;;;18.50;69.00;;;;;;5014181;28;20439;-69
2022/05/04 03:26:51;;;;;;;4.90;3.17;;;18.50;69.00;;;;;;5014917;28;20429;-70
2022/05/04 03:29:20;;;;;;;3.63;3.20;;;18.50;69.10;;;;;;5032819;28;20431;-69
2022/05/04 03:31:46;;;;;;;4.30;3.00;;;18.50;69.00;;;;;;5032857;28;20391;-69
2022/05/04 03:34:12;;;;;;;5.70;3.60;;;18.50;69.10;;;;;;5014791;28;20825;-69
2022/05/04 03:36:38;;;;;;;10.53;3.60;;;18.40;69.00;;;;;;5014769;28;20196;-69
2022/05/04 03:39:04;;;;;;;4.87;3.80;;;18.40;69.00;;;;;;5032198;28;20525;-69
2022/05/04 03:41:32;;;;;;;6.30;3.53;;;18.40;69.00;;;;;;5032674;28;20446;-69
2022/05/04 03:44:00;;;;;;;6.80;3.90;;;18.40;69.00;;;;;;5032420;28;20403;-70
2022/05/04 03:46:40;;;;;;;4.30;2.97;;;18.40;69.10;;;;;;5014859;28;20510;-69
2022/05/04 03:49:09;;;;;;;5.20;3.50;;;18.40;69.10;;;;;;5031838;28;20479;-70
2022/05/04 03:51:35;;;;;;;4.53;3.77;;;18.30;69.00;;;;;;5014088;28;20478;-70
2022/05/04 03:54:01;;;;;;;3.93;3.43;;;18.30;69.10;;;;;;5014565;28;20473;-69
2022/05/04 03:56:30;;;;;;;4.40;3.67;;;18.30;69.10;;;;;;5014786;28;20879;-70
2022/05/04 03:58:56;;;;;;;5.10;3.80;;;18.30;69.10;;;;;;4998093;28;20459;-69
2022/05/04 04:01:25;;;;;;;4.17;3.10;;;18.30;69.20;;;;;;5014362;28;20473;-69
2022/05/04 04:03:51;;;;;;;5.10;3.43;;;18.20;69.00;;;;;;5014278;28;20459;-69
2022/05/04 04:06:16;;;;;;;5.33;3.40;;;18.20;69.00;;;;;;5014312;28;20423;-69
2022/05/04 04:08:45;;;;;;;5.60;3.80;;;18.20;69.00;;;;;;5014148;28;20347;-69
2022/05/04 04:11:11;;;;;;;6.40;3.23;;;18.20;69.00;;;;;;5014348;28;20408;-70
2022/05/04 04:13:38;;;;;;;4.23;3.23;;;18.20;69.00;;;;;;5032349;28;20469;-69
2022/05/04 04:16:05;;;;;;;4.10;3.20;;;18.20;69.00;;;;;;5014159;28;20435;-69
2022/05/04 04:18:31;;;;;;;9.23;3.47;;;18.20;69.00;;;;;;5013888;28;20485;-69
2022/05/04 04:23:41;;;;;;;6.53;3.37;;;18.10;69.00;;;;;;5014008;28;20533;-69
2022/05/04 04:26:09;;;;;;;4.50;3.07;;;18.10;69.00;;;;;;5031686;28;20437;-69
2022/05/04 04:28:36;;;;;;;7.47;3.40;;;18.10;69.10;;;;;;5014039;28;20471;-69
2022/05/04 04:31:03;;;;;;;5.83;3.30;;;18.10;69.10;;;;;;5014108;28;20410;-69
2022/05/04 04:33:29;;;;;;;5.30;3.83;;;18.10;69.00;;;;;;5013973;28;20841;-69
2022/05/04 04:35:56;;;;;;;7.67;3.70;;;18.00;69.00;;;;;;5031419;28;20423;-70
2022/05/04 04:38:23;;;;;;;4.57;3.33;;;18.00;69.00;;;;;;5013431;28;20462;-69
2022/05/04 04:40:51;;;;;;;4.83;3.30;;;18.00;69.10;;;;;;5013700;28;20439;-69
2022/05/04 04:43:17;;;;;;;3.70;3.10;;;18.00;69.00;;;;;;5013902;28;20417;-69
2022/05/04 04:45:44;;;;;;;5.10;4.23;;;18.00;69.10;;;;;;5031535;28;20950;-69
2022/05/04 04:48:11;;;;;;;4.77;3.53;;;18.00;69.10;;;;;;5013418;28;20474;-69
2022/05/04 04:50:37;;;;;;;6.20;3.57;;;17.90;69.00;;;;;;5013744;28;20403;-69
2022/05/04 04:53:03;;;;;;;8.10;3.30;;;17.90;69.00;;;;;;5013806;28;20397;-69
2022/05/04 04:55:32;;;;;;;6.20;3.87;;;17.90;69.00;;;;;;5013808;28;20406;-69
2022/05/04 04:57:58;;;;;;;5.20;3.37;;;17.90;69.00;;;;;;5013644;28;20973;-69
2022/05/04 05:00:24;;;;;;;4.77;3.33;;;17.90;69.10;;;;;;5013674;28;20414;-69
2022/05/04 05:02:53;;;;;;;5.27;3.67;;;17.90;69.10;;;;;;5031303;28;20680;-69
2022/05/04 05:05:21;;;;;;;8.97;3.83;;;17.90;69.10;;;;;;5013727;28;20414;-70
2022/05/04 05:07:47;;;;;;;6.67;3.70;;;17.80;69.10;;;;;;4993760;28;20843;-69
2022/05/04 05:10:13;;;;;;;7.77;3.77;;;17.80;69.10;;;;;;5011364;28;20426;-69
2022/05/04 05:12:39;;;;;;;6.63;3.40;;;17.80;69.10;;;;;;5011158;28;20431;-69
2022/05/04 05:17:52;;;;;;;6.33;3.90;;;17.80;69.10;;;;;;5010384;28;20428;-69
2022/05/04 05:20:23;;;;;;;3.93;3.20;;;17.80;69.20;;;;;;4978055;28;20430;-69
2022/05/04 05:22:51;;;;;;;6.73;3.50;;;17.70;69.10;;;;;;4993772;28;20952;-69
2022/05/04 05:25:17;;;;;;;5.10;3.50;;;17.70;69.20;;;;;;5011372;28;20427;-69
2022/05/04 05:27:43;;;;;;;8.23;3.40;;;17.70;69.20;;;;;;4993742;28;20838;-70
2022/05/04 05:30:10;;;;;;;7.60;4.23;;;17.70;69.20;;;;;;4994073;28;20411;-70
2022/05/04 05:32:36;;;;;;;5.53;3.57;;;17.70;69.20;;;;;;5011367;28;20427;-69
2022/05/04 05:35:02;;;;;;;5.40;3.50;;;17.70;69.30;;;;;;5010470;28;20473;-69
2022/05/04 05:37:31;;;;;;;6.10;3.97;;;17.60;69.20;;;;;;5023499;28;20175;-69
2022/05/04 05:39:59;;;;;;;6.33;3.80;;;17.60;69.20;;;;;;5011908;28;20422;-69
2022/05/04 05:42:25;;;;;;;4.23;3.53;;;17.60;69.30;;;;;;5015964;28;20440;-69
2022/05/04 05:44:56;;;;;;;6.90;4.23;;;17.60;69.20;;;;;;5051124;28;20280;-69
2022/05/04 05:47:27;;;;;;;6.97;4.23;;;17.60;69.30;;;;;;5020830;28;20466;-69
2022/05/04 05:49:53;;;;;;;6.73;4.23;;;17.60;69.30;;;;;;5016689;28;20435;-69
2022/05/04 05:52:19;;;;;;;7.80;4.00;;;17.60;69.30;;;;;;5016910;28;20410;-69
2022/05/04 05:54:45;;;;;;;10.70;4.13;;;17.50;69.40;;;;;;5034707;28;20402;-69
2022/05/04 05:57:16;;;;;;;5.77;3.83;;;17.50;69.30;;;;;;5016985;28;20667;-70
2022/05/04 05:59:44;;;;;;;5.60;4.00;;;17.50;69.40;;;;;;5000309;28;20911;-70
2022/05/04 06:02:10;;;;;;;6.30;4.10;;;17.50;69.50;;;;;;5016309;28;20481;-69
2022/05/04 06:04:37;;;;;;;9.77;4.73;;;17.50;69.50;;;;;;5034601;28;20164;-69
2022/05/04 06:07:06;;;;;;;5.30;3.17;;;17.50;69.60;;;;;;5034321;28;20410;-69
2022/05/04 06:09:31;;;;;;;5.07;3.90;;;17.50;69.60;;;;;;5034299;28;20448;-70
2022/05/04 06:12:00;;;;;;;6.80;3.33;;;17.50;69.60;;;;;;5016503;28;20420;-69
2022/05/04 06:14:26;;;;;;;7.47;4.10;;;17.50;69.60;;;;;;5016261;28;20463;-72
2022/05/04 06:16:54;;;;;;;12.20;4.13;;;17.40;69.60;;;;;;5016453;28;20398;-71
2022/05/04 06:19:22;;;;;;;8.80;4.50;;;17.40;69.60;;;;;;5016256;28;20438;-72
2022/05/04 06:21:50;;;;;;;5.60;4.37;;;17.40;69.70;;;;;;5016444;28;20403;-71
2022/05/04 06:24:16;;;;;;;9.40;4.80;;;17.40;69.80;;;;;;5000038;28;20817;-72
2022/05/04 06:26:45;;;;;;;6.60;4.47;;;17.40;69.80;;;;;;5034259;28;20423;-72
2022/05/04 06:29:15;;;;;;;6.30;3.30;;;17.40;69.80;;;;;;5032549;28;20580;-71
2022/05/04 06:34:33;;;;;;;6.27;4.20;;;17.40;69.90;;;;;;5023116;28;20415;-72
2022/05/04 06:37:00;;;;;;;5.27;3.70;;;17.40;70.00;;;;;;5022678;28;20800;-71
2022/05/04 06:39:28;;;;;;;6.73;3.80;;;17.40;70.00;;;;;;5016009;28;20456;-71
2022/05/04 06:41:54;;;;;;;7.97;4.93;;;17.40;70.10;;;;;;5033408;28;20497;-71
2022/05/04 06:44:23;;;;;;;8.27;4.53;;;17.30;70.00;;;;;;5016051;28;20529;-72
2022/05/04 06:46:52;;;;;;;6.67;3.60;;;17.30;70.80;;;;;;5015858;28;20874;-71
2022/05/04 06:49:20;;;;;;;6.33;3.60;;;17.30;70.10;;;;;;5015425;28;20221;-71
2022/05/04 06:51:51;;;;;;;5.13;3.73;;;17.30;70.10;;;;;;5015921;28;20427;-71
2022/05/04 06:54:19;;;;;;;7.27;4.10;;;17.30;70.10;;;;;;5032083;28;20454;-71
2022/05/04 06:56:47;;;;;;;7.97;3.90;;;17.30;70.20;;;;;;5033373;28;20889;-71
2022/05/04 06:59:15;;;;;;;4.90;3.37;;;17.30;70.20;;;;;;5015922;28;20446;-72
2022/05/04 07:01:44;;;;;;;5.60;3.57;;;17.30;70.20;;;;;;5032975;28;20253;-72
2022/05/04 07:04:12;;;;;;;4.40;3.80;;;17.30;71.00;;;;;;4999363;28;20449;-71
2022/05/04 07:06:40;;;;;;;9.10;4.87;;;17.30;70.20;;;;;;5033280;28;20419;-72
2022/05/04 07:09:06;;;;;;;7.33;4.40;;;17.30;70.20;;;;;;5032450;28;20474;-71
2022/05/04 07:11:32;;;;;;;5.13;3.80;;;17.30;70.20;;;;;;5031605;28;20204;-71
2022/05/04 07:13:58;;;;;;;5.83;3.83;;;17.30;71.10;;;;;;5014999;28;20449;-71
2022/05/04 07:16:24;;;;;;;4.47;3.30;;;17.30;70.30;;;;;;5031987;28;20413;-72
2022/05/04 07:18:50;;;;;;;5.03;3.90;;;17.30;70.30;;;;;;5015566;28;20454;-72
2022/05/04 07:21:16;;;;;;;7.00;4.43;;;17.30;70.30;;;;;;4998823;28;20437;-71
2022/05/04 07:23:42;;;;;;;8.50;4.30;;;17.30;70.20;;;;;;5031652;28;20538;-72
2022/05/04 07:26:08;;;;;;;7.20;3.43;;;17.30;70.20;;;;;;5015437;28;20431;-72
2022/05/04 07:28:38;;;;;;;6.33;4.20;;;17.30;70.20;;;;;;5015075;28;20229;-71
2022/05/04 07:31:06;;;;;;;6.60;3.63;;;17.30;70.20;;;;;;5034965;28;20395;-71
2022/05/04 07:33:34;;;;;;;6.30;3.67;;;17.30;70.20;;;;;;5051644;28;20481;-72
2022/05/04 07:36:05;;;;;;;5.07;3.57;;;17.30;70.20;;;;;;5052498;28;20410;-71
2022/05/04 07:38:31;;;;;;;5.57;3.60;;;17.30;70.20;;;;;;5052582;28;20521;-72
2022/05/04 07:43:43;;;;;;;4.90;3.40;;;17.30;70.00;;;;;;5032610;28;20417;-71
2022/05/04 07:46:11;;;;;;;6.00;3.00;;;17.30;70.00;;;;;;5015202;28;20437;-72
2022/05/04 07:48:37;;;;;;;4.90;3.60;;;17.30;70.00;;;;;;5014410;28;20497;-71
2022/05/04 07:51:03;;;;;;;3.83;3.27;;;17.30;70.00;;;;;;5007552;28;20486;-71
2022/05/04 07:53:29;;;;;;;4.80;3.17;;;17.30;70.00;;;;;;5012820;28;20411;-72
2022/05/04 07:55:58;;;;;;;4.30;3.07;;;17.30;70.00;;;;;;5012773;28;20404;-72
2022/05/04 07:58:24;;;;;;;6.70;3.50;;;17.30;70.00;;;;;;5022991;28;20531;-72
2022/05/04 08:09:26;;;;;;;6.00;3.63;;;17.30;70.10;;;;;;5494976;22;20501;-67
2022/05/04 08:11:52;;;;;;;6.37;3.67;;;17.40;70.20;;;;;;5033336;28;20394;-67
2022/05/04 08:14:18;;;;;;;5.10;3.63;;;17.40;70.30;;;;;;5033490;28;20454;-67
2022/05/04 08:16:46;;;;;;;6.17;3.30;;;17.40;70.30;;;;;;5033632;28;20412;-66
2022/05/04 08:19:13;;;;;;;6.17;3.83;;;17.40;70.30;;;;;;5024981;28;20514;-67
2022/05/04 08:21:39;;;;;;;5.20;3.63;;;17.40;70.30;;;;;;5013756;28;20434;-66
2022/05/04 08:24:08;;;;;;;6.93;3.50;;;17.40;70.40;;;;;;5013800;28;20891;-67
2022/05/04 08:26:36;;;;;;;5.40;3.67;;;17.40;70.30;;;;;;5013828;28;20208;-67
2022/05/04 08:29:02;;;;;;;5.37;3.97;;;17.40;70.30;;;;;;5013343;28;20465;-68
2022/05/04 08:31:29;;;;;;;7.13;3.20;;;17.40;70.40;;;;;;5013765;28;20423;-67
2022/05/04 08:33:55;;;;;;;7.57;4.07;;;17.40;70.30;;;;;;5012459;28;20776;-67
2022/05/04 08:36:24;;;;;;;5.47;4.20;;;17.50;70.50;;;;;;5013506;28;20406;-67
2022/05/04 08:38:54;;;;;;;7.27;4.23;;;17.40;70.30;;;;;;5013387;28;20210;-68
2022/05/04 08:41:25;;;;;;;6.87;4.53;;;17.50;70.40;;;;;;5012388;28;20423;-67
2022/05/04 08:43:53;;;;;;;5.00;3.40;;;17.50;70.50;;;;;;5013568;28;20430;-67
2022/05/04 08:46:26;;;;;;;5.60;4.07;;;17.50;70.50;;;;;;5012287;28;20469;-67
2022/05/04 08:48:53;;;;;;;5.27;4.17;;;17.50;70.50;;;;;;5012103;28;20462;-67
2022/05/04 08:51:20;;;;;;;7.87;4.03;;;17.50;70.50;;;;;;5013410;28;20458;-67
2022/05/04 08:53:48;;;;;;;4.83;3.83;;;17.60;70.60;;;;;;5028845;28;20904;-67
2022/05/04 08:56:17;;;;;;;6.50;3.80;;;17.50;70.60;;;;;;4996329;28;20507;-67
2022/05/04 08:58:47;;;;;;;8.63;4.40;;;17.60;70.70;;;;;;5028523;28;20536;-67
2022/05/04 09:01:13;;;;;;;5.93;4.30;;;17.60;70.70;;;;;;5013194;28;20444;-67
2022/05/04 09:03:41;;;;;;;9.40;4.30;;;17.60;70.70;;;;;;5013279;28;20564;-67
2022/05/04 09:06:10;;;;;;;5.40;3.60;;;17.60;70.80;;;;;;5012142;28;20406;-67
2022/05/04 09:09:08;;;;;;;6.10;3.57;;;17.60;70.80;;;;;;5011411;28;20521;-68
2022/05/04 09:11:44;;;;;;;5.73;4.10;;;17.70;71.00;;;;;;5013166;28;20405;-67
2022/05/04 09:14:17;;;;;;;9.40;4.80;;;17.70;71.00;;;;;;5013153;28;20775;-67
2022/05/04 09:16:46;;;;;;;9.13;4.50;;;17.70;71.10;;;;;;4995947;28;20414;-67
2022/05/04 09:19:15;;;;;;;8.73;4.77;;;17.80;71.30;;;;;;4995847;28;20439;-67
2022/05/04 09:21:47;;;;;;;5.70;3.93;;;17.70;71.30;;;;;;5012231;28;20924;-67
2022/05/04 09:24:27;;;;;;;9.67;5.17;;;17.80;71.40;;;;;;5015625;28;20478;-67
2022/05/04 09:26:59;;;;;;;5.97;4.40;;;17.80;71.40;;;;;;5015919;28;20438;-67
2022/05/04 09:29:35;;;;;;;5.43;4.53;;;17.80;71.40;;;;;;5016824;28;20446;-68
2022/05/04 09:32:15;;;;;;;8.30;4.83;;;17.90;71.50;;;;;;5016773;28;20405;-67
2022/05/04 09:34:44;;;;;;;8.13;5.67;;;17.90;71.60;;;;;;5012109;28;20468;-67
2022/05/04 09:45:39;;;;;;;8.63;5.60;;;18.00;71.80;;;;;;4995951;28;20531;-67
2022/05/04 09:48:11;;;;;;;8.07;5.13;;;18.00;71.70;;;;;;4996723;28;20475;-67
2022/05/04 09:50:39;;;;;;;10.30;6.07;;;18.10;71.90;;;;;;4995782;28;20404;-67
2022/05/04 09:53:06;;;;;;;9.50;6.10;;;18.10;71.80;;;;;;4979462;28;20448;-67
2022/05/04 09:55:33;;;;;;;9.80;5.40;;;18.10;71.70;;;;;;4996725;28;20408;-67
2022/05/04 09:57:59;;;;;;;11.33;5.50;;;18.20;72.60;;;;;;4979393;28;20448;-67
2022/05/04 10:00:27;;;;;;;8.07;5.73;;;18.20;71.80;;;;;;4995754;28;20443;-67
2022/05/04 10:02:56;;;;;;;6.00;4.60;;;18.20;71.70;;;;;;4979457;28;20440;-67
2022/05/04 10:05:24;;;;;;;11.33;5.37;;;18.20;71.70;;;;;;4995471;28;20439;-67
2022/05/04 10:07:57;;;;;;;9.50;5.63;;;18.30;71.80;;;;;;4996606;28;20472;-68
2022/05/04 10:10:25;;;;;;;8.10;5.33;;;18.30;71.80;;;;;;4995490;28;20510;-67
2022/05/04 10:12:58;;;;;;;9.53;5.93;;;18.30;71.80;;;;;;4996662;28;20403;-67
2022/05/04 10:15:25;;;;;;;10.20;6.10;;;18.30;71.70;;;;;;4995151;28;20437;-67
2022/05/04 10:18:27;;;;;;;10.33;5.67;;;18.40;71.90;;;;;;4979161;28;20451;-67
2022/05/04 10:21:12;;;;;;;7.90;5.43;;;18.40;71.70;;;;;;4996448;28;20812;-68
2022/05/04 10:23:48;;;;;;;6.50;5.20;;;18.50;71.80;;;;;;4995114;28;20439;-68
2022/05/04 10:26:14;;;;;;;6.90;5.70;;;18.50;71.70;;;;;;4995186;28;20460;-67
2022/05/04 10:31:38;;;;;;;9.43;5.20;;;18.50;71.70;;;;;;4994892;28;20443;-67
2022/05/04 10:34:07;;;;;;;10.43;6.00;;;18.60;71.80;;;;;;5010821;28;20800;-67
2022/05/04 10:36:33;;;;;;;6.77;5.40;;;18.60;71.80;;;;;;4998749;28;20479;-70
2022/05/04 10:39:04;;;;;;;9.90;5.50;;;18.70;71.80;;;;;;5025873;28;20810;-69
2022/05/04 10:41:36;;;;;;;8.80;6.73;;;18.70;71.70;;;;;;4996188;28;20458;-70
2022/05/04 10:44:03;;;;;;;11.00;6.30;;;18.70;71.60;;;;;;4996545;28;20552;-70
2022/05/04 10:46:30;;;;;;;7.93;5.40;;;18.70;71.50;;;;;;5013927;28;20404;-71
2022/05/04 10:48:58;;;;;;;8.70;5.97;;;18.80;71.60;;;;;;5012622;28;20474;-71
2022/05/04 10:51:31;;;;;;;6.20;4.83;;;18.80;71.50;;;;;;5013780;28;20839;-71
2022/05/04 10:54:05;;;;;;;8.03;5.10;;;18.80;71.40;;;;;;4996519;28;20420;-71
2022/05/04 10:56:50;;;;;;;6.77;4.57;;;18.90;71.40;;;;;;5012647;28;20444;-71
2022/05/04 10:59:26;;;;;;;7.33;5.13;;;18.90;71.30;;;;;;5013354;28;20443;-71
2022/05/04 11:02:04;;;;;;;8.87;5.37;;;18.90;71.30;;;;;;5012545;28;20783;-71
2022/05/04 11:04:33;;;;;;;9.50;5.13;;;19.00;71.30;;;;;;5012389;28;20530;-71
2022/05/04 11:06:59;;;;;;;10.87;4.70;;;19.00;71.20;;;;;;4979838;28;20843;-71
2022/05/04 11:09:37;;;;;;;6.87;5.27;;;19.00;71.20;;;;;;5011506;28;20468;-71
2022/05/04 11:12:08;;;;;;;7.63;5.10;;;19.10;71.30;;;;;;5012041;28;20451;-71
2022/05/04 11:14:34;;;;;;;8.50;5.67;;;19.10;71.10;;;;;;4996182;28;20810;-71
2022/05/04 11:17:11;;;;;;;9.07;5.57;;;19.10;71.10;;;;;;5011957;28;20424;-71
2022/05/04 11:19:47;;;;;;;9.63;5.10;;;19.20;71.00;;;;;;5012862;28;20516;-71
2022/05/04 11:22:19;;;;;;;11.97;7.63;;;19.20;70.80;;;;;;5011977;28;20427;-71
2022/05/04 11:24:47;;;;;;;8.60;5.90;;;19.20;70.70;;;;;;5011757;28;20903;-71
2022/05/04 11:27:19;;;;;;;9.30;5.17;;;19.20;70.70;;;;;;5011111;28;20427;-71
2022/05/04 11:29:46;;;;;;;9.80;5.17;;;19.30;70.60;;;;;;4979585;28;20840;-71
2022/05/04 11:32:19;;;;;;;8.13;5.13;;;19.30;70.60;;;;;;5011756;28;20914;-71
2022/05/04 11:34:45;;;;;;;9.63;5.30;;;19.40;70.70;;;;;;5011781;28;20408;-71
2022/05/04 11:37:16;;;;;;;6.83;4.27;;;19.40;70.70;;;;;;5012077;28;20492;-71
2022/05/04 11:39:42;;;;;;;12.63;5.50;;;19.40;70.70;;;;;;5011497;28;20474;-71
2022/05/04 11:42:09;;;;;;;6.27;4.67;;;19.40;70.50;;;;;;4995179;28;20464;-71
2022/05/04 11:44:41;;;;;;;5.90;5.00;;;19.50;70.50;;;;;;5012428;28;20903;-71
2022/05/04 11:47:09;;;;;;;8.30;5.17;;;19.50;70.50;;;;;;4995088;28;20929;-71
2022/05/04 11:49:37;;;;;;;8.00;5.30;;;19.50;70.40;;;;;;5011731;28;20807;-71
2022/05/04 11:52:05;;;;;;;7.23;5.10;;;19.60;70.20;;;;;;5010945;28;20502;-71
2022/05/04 11:54:33;;;;;;;13.77;5.43;;;19.60;69.70;;;;;;5010842;28;20418;-71
2022/05/04 11:57:09;;;;;;;6.80;4.80;;;19.60;69.30;;;;;;5011744;28;20767;-71
2022/05/04 11:59:35;;;;;;;8.00;5.23;;;19.60;69.00;;;;;;5011494;28;20471;-71
2022/05/04 12:02:03;;;;;;;7.23;4.63;;;19.70;68.80;;;;;;5011782;28;20868;-69
2022/05/04 12:04:30;;;;;;;7.50;5.27;;;19.70;68.70;;;;;;5012030;28;20438;-69
2022/05/04 12:06:59;;;;;;;6.10;4.47;;;19.70;68.50;;;;;;5010091;28;20495;-71
2022/05/04 12:09:25;;;;;;;7.27;4.27;;;19.70;68.40;;;;;;5010941;28;20997;-69
2022/05/04 12:11:54;;;;;;;7.53;5.13;;;19.80;68.30;;;;;;5007759;28;21884;-69
2022/05/04 12:14:21;;;;;;;8.67;4.70;;;19.80;68.00;;;;;;5009406;28;20468;-68
2022/05/04 12:16:49;;;;;;;5.20;4.33;;;19.80;67.90;;;;;;5011038;28;20430;-70
2022/05/04 12:19:18;;;;;;;6.40;4.00;;;19.90;67.90;;;;;;5007745;28;20457;-71
2022/05/04 12:21:47;;;;;;;5.30;4.10;;;19.90;67.90;;;;;;5002540;28;20496;-69
2022/05/04 12:24:15;;;;;;;5.93;3.70;;;19.90;67.80;;;;;;5011374;28;20432;-69
2022/05/04 12:26:44;;;;;;;6.17;4.13;;;20.00;67.60;;;;;;5011258;28;20407;-70
2022/05/04 12:34:47;;;;;;;5.57;3.80;;;20.00;66.50;;;;;;4993271;28;20811;-67
2022/05/04 12:37:20;;;;;;;6.70;3.50;;;20.10;66.60;;;;;;5000387;28;20475;-70
2022/05/04 12:39:50;;;;;;;5.43;3.30;;;20.10;66.50;;;;;;5015832;28;20440;-70
2022/05/04 12:42:17;;;;;;;7.73;3.07;;;20.10;66.40;;;;;;5010019;28;20513;-69
2022/05/04 12:44:55;;;;;;;6.33;4.20;;;20.10;66.40;;;;;;4978436;28;20437;-70
2022/05/04 12:47:22;;;;;;;5.57;3.40;;;20.20;66.40;;;;;;4999555;28;20975;-73
2022/05/04 12:49:48;;;;;;;9.00;3.30;;;20.20;66.30;;;;;;5010929;28;20476;-71
2022/05/04 12:52:16;;;;;;;9.60;3.87;;;20.20;66.20;;;;;;5004715;28;20419;-71
2022/05/04 12:54:45;;;;;;;8.20;3.30;;;20.30;66.20;;;;;;4992160;28;20402;-71
2022/05/04 12:57:14;;;;;;;6.93;3.70;;;20.30;66.10;;;;;;4993491;28;20443;-71
2022/05/04 12:59:39;;;;;;;8.23;3.60;;;20.30;66.10;;;;;;4982510;28;20504;-70
2022/05/04 13:02:13;;;;;;;6.30;3.63;;;20.30;65.50;;;;;;5031220;28;20468;-72
2022/05/04 13:04:41;;;;;;;6.03;4.20;;;20.40;64.80;;;;;;5014572;28;20414;-69
2022/05/04 13:07:07;;;;;;;4.30;3.53;;;20.40;64.40;;;;;;5014083;28;20959;-69
2022/05/04 13:09:34;;;;;;;5.13;3.10;;;20.40;64.30;;;;;;4994529;28;20851;-68
2022/05/04 13:12:06;;;;;;;7.57;4.07;;;20.50;64.30;;;;;;4995171;28;20459;-70
2022/05/04 13:14:32;;;;;;;5.97;3.67;;;20.50;64.20;;;;;;5014958;28;20868;-68
2022/05/04 13:16:58;;;;;;;6.27;3.00;;;20.50;63.80;;;;;;5020627;28;20437;-68
2022/05/04 13:19:24;;;;;;;7.17;3.13;;;20.60;63.50;;;;;;5021876;28;20544;-68
2022/05/04 13:21:52;;;;;;;5.07;3.10;;;20.60;63.40;;;;;;5019675;28;20439;-67
2022/05/04 13:24:18;;;;;;;6.30;3.63;;;20.60;63.10;;;;;;5015758;28;20441;-68
2022/05/04 13:26:44;;;;;;;6.10;3.03;;;20.60;62.70;;;;;;5013765;28;20431;-68
2022/05/04 13:29:13;;;;;;;4.30;3.30;;;20.70;63.00;;;;;;5013691;28;20470;-68
2022/05/04 13:31:42;;;;;;;6.00;3.57;;;20.70;63.00;;;;;;4997889;28;20424;-68
2022/05/04 13:34:13;;;;;;;5.83;3.60;;;20.80;63.20;;;;;;5015064;28;20422;-67
2022/05/04 13:36:41;;;;;;;4.87;3.20;;;20.80;63.30;;;;;;5013773;28;20531;-68